createdAt,value
2023-02-07T00:01:20.588Z,101695.44
2023-02-07T00:03:47.347Z,101695.47
2023-02-07T00:06:20.644Z,101700.69
2023-02-07T00:08:48.105Z,101707.66
2023-02-07T00:11:16.950Z,101692.84
2023-02-07T00:13:44.749Z,101698.00
2023-02-07T00:16:12.042Z,101704.06
2023-02-07T00:18:38.469Z,101696.16
2023-02-07T00:21:07.912Z,101694.31
2023-02-07T00:23:34.869Z,101686.53
2023-02-07T00:26:01.874Z,101694.25
2023-02-07T00:28:28.473Z,101692.56
2023-02-07T00:31:14.958Z,101679.50
2023-02-07T00:33:43.432Z,101685.56
2023-02-07T00:36:13.524Z,101673.41
2023-02-07T00:38:40.067Z,101702.03
2023-02-07T00:41:07.201Z,101695.97
2023-02-07T00:43:34.023Z,101692.47
2023-02-07T00:46:03.478Z,101705.41
2023-02-07T00:48:30.853Z,101690.72
2023-02-07T00:50:58.149Z,101685.53
2023-02-07T00:53:25.729Z,101688.16
2023-02-07T00:55:52.621Z,101689.72
2023-02-07T00:58:19.516Z,101688.81
2023-02-07T01:00:46.394Z,101691.28
2023-02-07T01:03:12.860Z,101696.47
2023-02-07T01:05:39.626Z,101693.06
2023-02-07T01:08:06.574Z,101699.03
2023-02-07T01:10:33.391Z,101706.75
2023-02-07T01:12:59.897Z,101706.72
2023-02-07T01:15:27.227Z,101704.16
2023-02-07T01:17:53.826Z,101706.75
2023-02-07T01:20:20.353Z,101699.88
2023-02-07T01:22:46.832Z,101694.59
2023-02-07T01:25:13.243Z,101705.66
2023-02-07T01:27:39.749Z,101687.44
2023-02-07T01:30:06.529Z,101705.50
2023-02-07T01:32:33.868Z,101702.91
2023-02-07T01:35:00.360Z,101695.94
2023-02-07T01:37:27.323Z,101694.19
2023-02-07T01:39:54.920Z,101691.66
2023-02-07T01:42:24.879Z,101689.13
2023-02-07T01:44:51.265Z,101688.25
2023-02-07T01:47:21.192Z,101688.09
2023-02-07T01:49:50.183Z,101695.72
2023-02-07T01:52:43.023Z,101695.72
2023-02-07T01:55:12.514Z,101707.81
2023-02-07T01:57:39.345Z,101716.31
2023-02-07T02:00:06.501Z,101706.66
2023-02-07T02:02:35.554Z,101711.66
2023-02-07T02:05:03.357Z,101714.19
2023-02-07T02:07:32.812Z,101710.72
2023-02-07T02:10:00.776Z,101709.00
2023-02-07T02:12:42.588Z,101714.97
2023-02-07T02:15:36.332Z,101716.69
2023-02-07T02:18:08.928Z,101717.63
2023-02-07T02:20:44.382Z,101714.06
2023-02-07T02:23:17.206Z,101710.59
2023-02-07T02:26:15.734Z,101705.44
2023-02-07T02:29:12.580Z,101702.78
2023-02-07T02:32:07.765Z,101706.22
2023-02-07T02:34:56.841Z,101709.59
2023-02-07T02:37:32.565Z,101705.19
2023-02-07T02:40:11.688Z,101702.56
2023-02-07T02:42:43.906Z,101707.69
2023-02-07T02:45:21.648Z,101704.97
2023-02-07T02:47:50.720Z,101702.38
2023-02-07T02:50:28.029Z,101713.84
2023-02-07T02:52:54.800Z,101713.06
2023-02-07T02:55:47.246Z,101730.28
2023-02-07T02:59:04.937Z,101733.69
2023-02-07T03:01:50.012Z,101739.69
2023-02-07T03:04:37.634Z,101729.41
2023-02-07T03:07:13.101Z,101735.50
2023-02-07T03:09:52.571Z,101735.44
2023-02-07T03:12:27.112Z,101727.69
2023-02-07T03:15:04.136Z,101742.41
2023-02-07T03:18:05.051Z,101733.78
2023-02-07T03:20:43.157Z,101727.69
2023-02-07T03:23:11.027Z,101724.28
2023-02-07T03:25:41.327Z,101718.13
2023-02-07T03:28:10.425Z,101717.25
2023-02-07T03:30:39.044Z,101712.94
2023-02-07T03:33:11.588Z,101714.59
2023-02-07T03:35:46.877Z,101715.44
2023-02-07T03:38:14.044Z,101711.13
2023-02-07T03:40:46.544Z,101703.38
2023-02-07T03:43:20.607Z,101717.09
2023-02-07T03:45:47.070Z,101708.44
2023-02-07T03:48:13.524Z,101707.53
2023-02-07T03:50:39.996Z,101707.56
2023-02-07T03:53:06.541Z,101711.88
2023-02-07T03:55:33.398Z,101717.81
2023-02-07T03:57:59.950Z,101722.88
2023-02-07T04:00:26.760Z,101715.94
2023-02-07T04:02:53.353Z,101717.59
2023-02-07T04:05:19.784Z,101710.69
2023-02-07T04:07:46.275Z,101714.22
2023-02-07T04:10:12.772Z,101711.59
2023-02-07T04:12:39.221Z,101707.19
2023-02-07T04:15:07.002Z,101694.28
2023-02-07T04:17:34.071Z,101698.50
2023-02-07T04:20:01.699Z,101703.69
2023-02-07T04:22:29.082Z,101706.28
2023-02-07T04:24:56.524Z,101713.19
2023-02-07T04:27:23.113Z,101713.16
2023-02-07T04:29:49.793Z,101705.31
2023-02-07T04:32:16.674Z,101692.19
2023-02-07T04:34:43.114Z,101703.25
2023-02-07T04:37:10.145Z,101703.22
2023-02-07T04:39:36.571Z,101697.09
2023-02-07T04:42:03.054Z,101709.09
2023-02-07T04:44:29.556Z,101699.53
2023-02-07T04:46:55.991Z,101690.25
2023-02-07T04:49:22.560Z,101691.19
2023-02-07T04:51:48.994Z,101686.78
2023-02-07T04:54:15.432Z,101691.22
2023-02-07T04:56:42.014Z,101697.06
2023-02-07T04:59:08.510Z,101704.00
2023-02-07T05:01:35.005Z,101697.84
2023-02-07T05:04:01.421Z,101706.53
2023-02-07T05:06:27.850Z,101703.00
2023-02-07T05:08:54.276Z,101696.13
2023-02-07T05:11:20.785Z,101692.75
2023-02-07T05:13:47.258Z,101697.06
2023-02-07T05:16:13.775Z,101700.34
2023-02-07T05:18:40.189Z,101704.41
2023-02-07T05:21:06.666Z,101704.31
2023-02-07T05:23:33.156Z,101696.56
2023-02-07T05:25:59.656Z,101702.69
2023-02-07T05:28:26.136Z,101691.56
2023-02-07T05:30:55.223Z,101689.84
2023-02-07T05:33:21.697Z,101688.81
2023-02-07T05:35:48.265Z,101684.53
2023-02-07T05:38:17.787Z,101694.75
2023-02-07T05:40:44.729Z,101683.59
2023-02-07T05:43:12.221Z,101693.91
2023-02-07T05:45:39.144Z,101688.66
2023-02-07T05:48:06.721Z,101692.00
2023-02-07T05:50:33.190Z,101687.63
2023-02-07T05:52:59.964Z,101690.91
2023-02-07T05:55:26.564Z,101699.34
2023-02-07T05:57:53.026Z,101695.81
2023-02-07T06:00:20.380Z,101701.75
2023-02-07T06:02:46.884Z,101716.38
2023-02-07T06:05:16.584Z,101709.47
2023-02-07T06:07:46.363Z,101703.53
2023-02-07T06:10:13.722Z,101701.84
2023-02-07T06:12:40.454Z,101700.03
2023-02-07T06:15:07.260Z,101694.75
2023-02-07T06:17:33.691Z,101693.81
2023-02-07T06:20:00.182Z,101694.75
2023-02-07T06:22:26.759Z,101699.19
2023-02-07T06:24:53.193Z,101694.78
2023-02-07T06:27:19.720Z,101696.66
2023-02-07T06:29:46.140Z,101697.41
2023-02-07T06:32:12.585Z,101704.06
2023-02-07T06:34:38.994Z,101704.81
2023-02-07T06:37:05.559Z,101718.47
2023-02-07T06:39:32.032Z,101717.66
2023-02-07T06:41:58.560Z,101728.91
2023-02-07T06:44:24.971Z,101730.47
2023-02-07T06:46:51.448Z,101729.50
2023-02-07T06:49:17.995Z,101734.44
2023-02-07T06:51:44.450Z,101734.47
2023-02-07T06:54:10.994Z,101749.75
2023-02-07T06:56:37.903Z,101756.66
2023-02-07T06:59:04.827Z,101760.19
2023-02-07T07:01:31.846Z,101763.63
2023-02-07T07:03:59.269Z,101764.59
2023-02-07T07:06:26.080Z,101763.84
2023-02-07T07:08:52.630Z,101764.66
2023-02-07T07:11:19.242Z,101761.53
2023-02-07T07:13:46.802Z,101753.88
2023-02-07T07:16:13.704Z,101764.22
2023-02-07T07:18:40.340Z,101758.25
2023-02-07T07:21:07.531Z,101765.28
2023-02-07T07:23:34.256Z,101760.00
2023-02-07T07:26:00.738Z,101762.94
2023-02-07T07:28:27.165Z,101767.44
2023-02-07T07:30:53.801Z,101772.78
2023-02-07T07:33:20.270Z,101776.50
2023-02-07T07:35:46.656Z,101771.69
2023-02-07T07:38:13.209Z,101766.06
2023-02-07T07:40:39.970Z,101770.06
2023-02-07T07:43:06.739Z,101768.66
2023-02-07T07:45:33.279Z,101763.84
2023-02-07T07:47:59.811Z,101771.41
2023-02-07T07:50:26.311Z,101777.53
2023-02-07T07:52:52.788Z,101789.13
2023-02-07T07:55:19.233Z,101787.41
2023-02-07T07:57:45.705Z,101800.56
2023-02-07T08:00:13.026Z,101802.03
2023-02-07T08:02:39.484Z,101806.22
2023-02-07T08:05:06.038Z,101811.22
2023-02-07T08:07:32.544Z,101813.81
2023-02-07T08:09:58.927Z,101820.09
2023-02-07T08:12:25.633Z,101827.94
2023-02-07T08:14:52.148Z,101820.31
2023-02-07T08:17:18.981Z,101817.69
2023-02-07T08:19:45.385Z,101812.66
2023-02-07T08:22:14.345Z,101800.81
2023-02-07T08:24:41.880Z,101795.75
2023-02-07T08:27:08.403Z,101784.75
2023-02-07T08:29:35.115Z,101789.59
2023-02-07T08:32:01.690Z,101793.28
2023-02-07T08:34:28.872Z,101781.25
2023-02-07T08:36:55.277Z,101791.66
2023-02-07T08:39:21.599Z,101799.41
2023-02-07T08:41:48.038Z,101796.00
2023-02-07T08:44:14.905Z,101807.25
2023-02-07T08:46:41.328Z,101808.06
2023-02-07T08:49:07.929Z,101799.94
2023-02-07T08:51:34.421Z,101795.66
2023-02-07T08:54:00.847Z,101804.56
2023-02-07T08:56:27.307Z,101807.88
2023-02-07T08:58:53.733Z,101802.84
2023-02-07T09:01:20.220Z,101812.84
2023-02-07T09:03:46.705Z,101812.97
2023-02-07T09:06:13.520Z,101817.84
2023-02-07T09:08:39.969Z,101801.22
2023-02-07T09:11:09.638Z,101803.94
2023-02-07T09:13:36.215Z,101805.34
2023-02-07T09:16:02.888Z,101805.59
2023-02-07T09:18:30.126Z,101806.13
2023-02-07T09:20:56.572Z,101793.53
2023-02-07T09:23:23.311Z,101794.06
2023-02-07T09:25:52.533Z,101797.88
2023-02-07T09:28:20.276Z,101792.91
2023-02-07T09:30:47.723Z,101799.81
2023-02-07T09:33:15.607Z,101797.50
2023-02-07T09:35:44.592Z,101798.38
2023-02-07T09:38:16.467Z,101780.31
2023-02-07T09:40:44.250Z,101779.81
2023-02-07T09:43:49.113Z,101781.44
2023-02-07T09:46:19.149Z,101786.91
2023-02-07T09:48:51.913Z,101785.84
2023-02-07T09:51:22.479Z,101793.47
2023-02-07T09:53:58.450Z,101793.97
2023-02-07T09:56:27.562Z,101807.28
2023-02-07T09:59:02.475Z,101807.19
2023-02-07T10:01:41.066Z,101812.25
2023-02-07T10:04:13.255Z,101809.66
2023-02-07T10:06:43.319Z,101811.84
2023-02-07T10:09:15.858Z,101808.84
2023-02-07T10:11:54.592Z,101822.91
2023-02-07T10:14:35.180Z,101819.38
2023-02-07T10:17:04.314Z,101812.25
2023-02-07T10:19:54.948Z,101817.31
2023-02-07T10:22:36.280Z,101810.63
2023-02-07T10:25:17.937Z,101815.63
2023-02-07T10:28:01.815Z,101819.63
2023-02-07T10:30:32.101Z,101827.56
2023-02-07T10:33:05.116Z,101811.00
2023-02-07T10:35:36.454Z,101817.31
2023-02-07T10:38:04.101Z,101813.78
2023-02-07T10:40:49.995Z,101815.53
2023-02-07T10:43:34.891Z,101821.75
2023-02-07T10:46:07.051Z,101826.94
2023-02-07T10:48:35.103Z,101818.50
2023-02-07T10:51:04.134Z,101817.38
2023-02-07T10:53:54.365Z,101811.38
2023-02-07T10:56:27.995Z,101820.72
2023-02-07T10:58:57.202Z,101806.88
2023-02-07T11:01:26.376Z,101804.03
2023-02-07T11:03:53.782Z,101805.75
2023-02-07T11:06:32.232Z,101801.09
2023-02-07T11:09:22.424Z,101807.44
2023-02-07T11:11:53.800Z,101800.94
2023-02-07T11:14:28.558Z,101801.09
2023-02-07T11:16:57.035Z,101802.16
2023-02-07T11:19:26.482Z,101791.81
2023-02-07T11:22:19.001Z,101792.97
2023-02-07T11:24:46.281Z,101798.72
2023-02-07T11:27:22.049Z,101791.13
2023-02-07T11:30:08.355Z,101795.06
2023-02-07T11:32:38.299Z,101799.44
2023-02-07T11:35:09.361Z,101789.97
2023-02-07T11:37:47.525Z,101783.06
2023-02-07T11:40:25.110Z,101786.19
2023-02-07T11:43:03.789Z,101777.56
2023-02-07T11:45:32.410Z,101784.97
2023-02-07T11:47:59.422Z,101792.44
2023-02-07T11:50:30.874Z,101791.31
2023-02-07T11:53:00.124Z,101784.19
2023-02-07T11:55:39.992Z,101788.72
2023-02-07T11:58:47.383Z,101788.56
2023-02-07T12:01:18.319Z,101793.94
2023-02-07T12:04:13.509Z,101784.97
2023-02-07T12:06:48.656Z,101780.31
2023-02-07T12:09:40.268Z,101769.56
2023-02-07T12:12:16.077Z,101761.91
2023-02-07T12:14:51.423Z,101766.53
2023-02-07T12:17:25.963Z,101751.50
2023-02-07T12:19:57.913Z,101752.81
2023-02-07T12:22:41.908Z,101740.53
2023-02-07T12:25:21.065Z,101741.56
2023-02-07T12:27:50.514Z,101732.13
2023-02-07T12:30:24.738Z,101736.00
2023-02-07T12:33:13.010Z,101738.56
2023-02-07T12:36:00.789Z,101722.00
2023-02-07T12:38:38.156Z,101719.16
2023-02-07T12:41:17.729Z,101731.56
2023-02-07T12:44:08.614Z,101728.00
2023-02-07T12:46:56.281Z,101733.81
2023-02-07T12:49:34.009Z,101735.19
2023-02-07T12:52:16.962Z,101724.41
2023-02-07T12:55:09.088Z,101719.59
2023-02-07T12:57:47.527Z,101728.84
2023-02-07T13:00:27.807Z,101726.75
2023-02-07T13:03:25.273Z,101718.13
2023-02-07T13:05:59.748Z,101721.16
2023-02-07T13:09:01.787Z,101727.41
2023-02-07T13:11:41.505Z,101728.06
2023-02-07T13:14:23.317Z,101724.19
2023-02-07T13:17:03.924Z,101723.47
2023-02-07T13:19:41.501Z,101718.91
2023-02-07T13:22:25.550Z,101724.88
2023-02-07T13:24:52.912Z,101721.44
2023-02-07T13:27:21.499Z,101720.72
2023-02-07T13:29:50.190Z,101725.91
2023-02-07T13:32:23.339Z,101735.38
2023-02-07T13:34:58.981Z,101727.03
2023-02-07T13:37:54.891Z,101722.09
2023-02-07T13:40:53.516Z,101715.41
2023-02-07T13:43:30.925Z,101709.22
2023-02-07T13:46:12.510Z,101715.56
2023-02-07T13:48:51.197Z,101714.22
2023-02-07T13:51:38.303Z,101708.16
2023-02-07T13:54:30.980Z,101700.38
2023-02-07T13:57:18.756Z,101696.56
2023-02-07T14:00:05.213Z,101704.94
2023-02-07T14:02:40.987Z,101700.34
2023-02-07T14:05:11.483Z,101695.47
2023-02-07T14:07:39.454Z,101696.38
2023-02-07T14:10:06.568Z,101705.31
2023-02-07T14:12:36.931Z,101699.47
2023-02-07T14:15:28.276Z,101705.88
2023-02-07T14:18:01.513Z,101707.72
2023-02-07T14:20:37.230Z,101703.75
2023-02-07T14:23:06.805Z,101705.59
2023-02-07T14:25:33.142Z,101712.72
2023-02-07T14:28:02.621Z,101719.66
2023-02-07T14:30:36.773Z,101716.25
2023-02-07T14:33:21.359Z,101721.41
2023-02-07T14:36:17.473Z,101719.78
2023-02-07T14:38:59.326Z,101717.22
2023-02-07T14:41:32.347Z,101719.03
2023-02-07T14:44:09.165Z,101715.59
2023-02-07T14:46:38.396Z,101713.91
2023-02-07T14:49:13.656Z,101710.44
2023-02-07T14:51:57.940Z,101713.09
2023-02-07T14:54:48.730Z,101711.38
2023-02-07T14:57:33.696Z,101713.16
2023-02-07T15:00:12.281Z,101724.50
2023-02-07T15:03:05.029Z,101720.16
2023-02-07T15:05:34.447Z,101720.19
2023-02-07T15:08:03.871Z,101713.25
2023-02-07T15:10:42.144Z,101723.69
2023-02-07T15:13:29.746Z,101712.44
2023-02-07T15:16:00.836Z,101716.78
2023-02-07T15:18:32.295Z,101715.94
2023-02-07T15:20:59.579Z,101715.06
2023-02-07T15:23:28.661Z,101723.78
2023-02-07T15:25:55.771Z,101716.84
2023-02-07T15:28:27.298Z,101725.56
2023-02-07T15:31:13.783Z,101721.22
2023-02-07T15:33:52.724Z,101734.25
2023-02-07T15:36:29.875Z,101731.66
2023-02-07T15:38:57.717Z,101738.63
2023-02-07T15:41:24.544Z,101741.22
2023-02-07T15:44:01.613Z,101731.69
2023-02-07T15:46:44.124Z,101739.50
2023-02-07T15:49:10.550Z,101738.66
2023-02-07T15:51:41.236Z,101737.78
2023-02-07T15:54:16.382Z,101729.97
2023-02-07T15:56:48.879Z,101732.56
2023-02-07T15:59:19.245Z,101734.34
2023-02-07T16:01:54.131Z,101733.47
2023-02-07T16:04:24.700Z,101741.31
2023-02-07T16:07:13.247Z,101736.09
2023-02-07T16:09:43.215Z,101742.16
2023-02-07T16:12:45.098Z,101741.31
2023-02-07T16:15:34.966Z,101746.53
2023-02-07T16:18:03.118Z,101756.06
2023-02-07T16:20:32.450Z,101755.19
2023-02-07T16:23:06.589Z,101751.72
2023-02-07T16:25:35.052Z,101760.41
2023-02-07T16:28:03.966Z,101757.78
2023-02-07T16:30:35.184Z,101749.09
2023-02-07T16:33:13.023Z,101752.53
2023-02-07T16:35:39.564Z,101766.41
2023-02-07T16:38:06.148Z,101764.66
2023-02-07T16:40:32.667Z,101775.91
2023-02-07T16:43:02.188Z,101767.22
2023-02-07T16:45:29.882Z,101765.47
2023-02-07T16:47:59.226Z,101778.50
2023-02-07T16:50:30.051Z,101774.16
2023-02-07T16:52:57.694Z,101769.81
2023-02-07T16:55:27.369Z,101764.56
2023-02-07T16:57:54.803Z,101768.88
2023-02-07T17:00:23.996Z,101767.09
2023-02-07T17:02:52.806Z,101766.22
2023-02-07T17:05:21.710Z,101771.41
2023-02-07T17:07:49.874Z,101768.75
2023-02-07T17:10:25.329Z,101767.88
2023-02-07T17:12:51.915Z,101765.25
2023-02-07T17:15:18.451Z,101774.75
2023-02-07T17:17:44.965Z,101765.19
2023-02-07T17:20:23.617Z,101773.81
2023-02-07T17:22:51.674Z,101766.81
2023-02-07T17:25:19.894Z,101767.69
2023-02-07T17:27:47.208Z,101763.34
2023-02-07T17:30:16.558Z,101777.19
2023-02-07T17:32:43.727Z,101771.97
2023-02-07T17:35:10.264Z,101772.78
2023-02-07T17:37:36.740Z,101776.16
2023-02-07T17:40:03.984Z,101776.13
2023-02-07T17:42:30.420Z,101776.97
2023-02-07T17:44:56.862Z,101783.06
2023-02-07T17:47:23.587Z,101790.78
2023-02-07T17:49:50.040Z,101794.19
2023-02-07T17:52:16.514Z,101798.50
2023-02-07T17:54:45.192Z,101803.81
2023-02-07T17:57:13.504Z,101801.19
2023-02-07T17:59:39.941Z,101809.81
2023-02-07T18:02:06.466Z,101811.56
2023-02-07T18:04:33.002Z,101797.75
2023-02-07T18:06:59.610Z,101809.03
2023-02-07T18:09:26.381Z,101806.25
2023-02-07T18:11:52.951Z,101809.69
2023-02-07T18:14:19.468Z,101807.91
2023-02-07T18:16:46.405Z,101807.75
2023-02-07T18:19:17.866Z,101812.03
2023-02-07T18:21:44.865Z,101816.31
2023-02-07T18:24:11.494Z,101812.81
2023-02-07T18:26:38.018Z,101812.88
2023-02-07T18:29:04.596Z,101805.09
2023-02-07T18:31:31.523Z,101812.84
2023-02-07T18:33:58.036Z,101809.34
2023-02-07T18:36:26.767Z,101798.09
2023-02-07T18:38:53.314Z,101803.16
2023-02-07T18:41:23.213Z,101797.91
2023-02-07T18:43:50.276Z,101790.81
2023-02-07T18:46:19.255Z,101789.03
2023-02-07T18:48:49.705Z,101784.75
2023-02-07T18:51:18.313Z,101788.91
2023-02-07T18:53:44.968Z,101792.28
2023-02-07T18:56:15.455Z,101798.38
2023-02-07T18:58:42.180Z,101800.22
2023-02-07T19:01:10.932Z,101800.94
2023-02-07T19:03:38.520Z,101799.94
2023-02-07T19:06:06.835Z,101801.72
2023-02-07T19:08:33.591Z,101805.03
2023-02-07T19:11:04.246Z,101805.81
2023-02-07T19:13:31.607Z,101809.16
2023-02-07T19:16:04.876Z,101823.09
2023-02-07T19:18:31.846Z,101823.84
2023-02-07T19:21:05.769Z,101814.13
2023-02-07T19:23:32.275Z,101816.75
2023-02-07T19:25:58.692Z,101811.47
2023-02-07T19:28:25.392Z,101804.28
2023-02-07T19:30:51.967Z,101804.16
2023-02-07T19:33:18.611Z,101797.97
2023-02-07T19:35:45.016Z,101805.66
2023-02-07T19:38:11.509Z,101806.41
2023-02-07T19:40:38.203Z,101807.19
2023-02-07T19:43:04.818Z,101797.81
2023-02-07T19:45:31.321Z,101801.44
2023-02-07T19:47:57.837Z,101803.13
2023-02-07T19:50:26.155Z,101803.00
2023-02-07T19:52:52.654Z,101801.34
2023-02-07T19:55:19.209Z,101803.59
2023-02-07T19:57:45.716Z,101801.16
2023-02-07T20:00:12.521Z,101804.66
2023-02-07T20:02:38.993Z,101811.22
2023-02-07T20:05:05.733Z,101800.84
2023-02-07T20:07:32.299Z,101807.03
2023-02-07T20:09:58.837Z,101809.63
2023-02-07T20:12:25.250Z,101815.44
2023-02-07T20:14:51.834Z,101811.63
2023-02-07T20:17:18.387Z,101822.06
2023-02-07T20:19:44.836Z,101823.75
2023-02-07T20:22:11.287Z,101823.94
2023-02-07T20:24:37.785Z,101823.59
2023-02-07T20:27:04.618Z,101817.63
2023-02-07T20:29:32.575Z,101819.69
2023-02-07T20:31:59.113Z,101812.63
2023-02-07T20:34:25.635Z,101815.31
2023-02-07T20:36:52.125Z,101814.31
2023-02-07T20:39:21.072Z,101803.97
2023-02-07T20:41:49.995Z,101818.91
2023-02-07T20:44:19.893Z,101810.69
2023-02-07T20:46:48.947Z,101811.56
2023-02-07T20:49:19.621Z,101817.53
2023-02-07T20:51:51.714Z,101821.13
2023-02-07T20:54:20.578Z,101821.91
2023-02-07T20:56:47.453Z,101819.06
2023-02-07T20:59:22.860Z,101812.16
2023-02-07T21:01:49.700Z,101813.91
2023-02-07T21:04:17.159Z,101819.72
2023-02-07T21:06:44.742Z,101817.09
2023-02-07T21:09:13.234Z,101814.50
2023-02-07T21:11:41.629Z,101816.13
2023-02-07T21:14:15.235Z,101813.69
2023-02-07T21:16:42.174Z,101811.22
2023-02-07T21:19:08.736Z,101809.22
2023-02-07T21:21:35.292Z,101808.53
2023-02-07T21:24:02.318Z,101810.72
2023-02-07T21:26:29.163Z,101811.25
2023-02-07T21:29:03.881Z,101815.84
2023-02-07T21:31:32.689Z,101814.28
2023-02-07T21:34:00.151Z,101812.38
2023-02-07T21:36:32.252Z,101816.22
2023-02-07T21:39:02.858Z,101809.34
2023-02-07T21:41:29.411Z,101815.94
2023-02-07T21:43:57.933Z,101814.06
2023-02-07T21:46:27.339Z,101810.56
2023-02-07T21:49:01.796Z,101815.66
2023-02-07T21:51:30.107Z,101817.56
2023-02-07T21:53:57.948Z,101815.16
2023-02-07T21:56:27.236Z,101817.38
2023-02-07T21:59:00.058Z,101812.66
2023-02-07T22:01:27.418Z,101813.53
2023-02-07T22:03:56.317Z,101808.22
2023-02-07T22:06:24.904Z,101815.34
2023-02-07T22:08:53.986Z,101801.34
2023-02-07T22:11:22.549Z,101801.72
2023-02-07T22:13:52.244Z,101809.63
2023-02-07T22:16:20.850Z,101806.59
2023-02-07T22:18:48.074Z,101805.13
2023-02-07T22:21:19.123Z,101813.75
2023-02-07T22:23:46.315Z,101814.06
2023-02-07T22:26:13.327Z,101812.19
2023-02-07T22:28:41.730Z,101807.91
2023-02-07T22:31:16.052Z,101819.47
2023-02-07T22:33:42.808Z,101796.50
2023-02-07T22:36:19.025Z,101811.50
2023-02-07T22:38:46.081Z,101807.72
2023-02-07T22:41:13.080Z,101810.28
2023-02-07T22:43:40.204Z,101810.53
2023-02-07T22:46:09.115Z,101822.97
2023-02-07T22:48:35.865Z,101816.13
2023-02-07T22:51:20.568Z,101820.03
2023-02-07T22:53:48.752Z,101813.91
2023-02-07T22:56:16.181Z,101821.19
2023-02-07T22:58:42.650Z,101816.06
2023-02-07T23:01:19.745Z,101824.31
2023-02-07T23:03:46.298Z,101825.25
2023-02-07T23:06:13.014Z,101819.47
2023-02-07T23:08:39.457Z,101825.66
2023-02-07T23:11:11.197Z,101816.06
2023-02-07T23:13:44.150Z,101814.44
2023-02-07T23:16:16.569Z,101809.38
2023-02-07T23:18:43.128Z,101808.25
2023-02-07T23:21:15.611Z,101810.53
2023-02-07T23:23:42.680Z,101801.28
2023-02-07T23:26:11.457Z,101806.19
2023-02-07T23:28:38.872Z,101803.31
2023-02-07T23:31:10.427Z,101798.09
2023-02-07T23:33:37.101Z,101798.47
2023-02-07T23:36:05.002Z,101801.88
2023-02-07T23:38:32.422Z,101808.00
2023-02-07T23:40:58.936Z,101804.66
2023-02-07T23:43:25.931Z,101800.25
2023-02-07T23:45:52.505Z,101798.47
2023-02-07T23:48:19.625Z,101798.09
2023-02-07T23:50:53.824Z,101801.84
2023-02-07T23:53:20.708Z,101792.41
2023-02-07T23:55:49.049Z,101791.06
2023-02-07T23:58:15.910Z,101800.38
